sensor_id;sensor_type;location;lat;lon;timestamp;temperature;humidity
8778;DHT22;4425;50.872;4.712;2022-12-11T00:01:17;2.30;99.90
8778;DHT22;4425;50.872;4.712;2022-12-11T00:03:45;2.30;99.90
8778;DHT22;4425;50.872;4.712;2022-12-11T00:06:16;2.30;99.90
8778;DHT22;4425;50.872;4.712;2022-12-11T00:08:43;2.40;99.90
8778;DHT22;4425;50.872;4.712;2022-12-11T00:11:11;2.40;99.90
8778;DHT22;4425;50.872;4.712;2022-12-11T00:13:39;2.40;99.90
8778;DHT22;4425;50.872;4.712;2022-12-11T00:16:06;2.30;99.90
8778;DHT22;4425;50.872;4.712;2022-12-11T00:18:33;2.30;99.90
8778;DHT22;4425;50.872;4.712;2022-12-11T00:21:01;2.30;99.90
8778;DHT22;4425;50.872;4.712;2022-12-11T00:23:33;2.40;99.90
8778;DHT22;4425;50.872;4.712;2022-12-11T00:26:04;2.40;99.90
8778;DHT22;4425;50.872;4.712;2022-12-11T00:28:32;2.40;99.90
8778;DHT22;4425;50.872;4.712;2022-12-11T00:31:02;2.30;99.90
8778;DHT22;4425;50.872;4.712;2022-12-11T00:33:30;2.40;99.90
8778;DHT22;4425;50.872;4.712;2022-12-11T00:35:57;2.30;99.90
8778;DHT22;4425;50.872;4.712;2022-12-11T00:38:24;2.40;99.90
8778;DHT22;4425;50.872;4.712;2022-12-11T00:40:56;2.50;99.90
8778;DHT22;4425;50.872;4.712;2022-12-11T00:43:23;2.30;99.90
8778;DHT22;4425;50.872;4.712;2022-12-11T00:45:50;2.40;99.90
8778;DHT22;4425;50.872;4.712;2022-12-11T00:48:18;2.30;99.90
8778;DHT22;4425;50.872;4.712;2022-12-11T00:50:45;2.30;99.90
8778;DHT22;4425;50.872;4.712;2022-12-11T00:53:12;2.20;99.90
8778;DHT22;4425;50.872;4.712;2022-12-11T00:55:41;2.30;99.90
8778;DHT22;4425;50.872;4.712;2022-12-11T00:58:10;2.30;99.90
8778;DHT22;4425;50.872;4.712;2022-12-11T01:00:39;2.20;99.90
8778;DHT22;4425;50.872;4.712;2022-12-11T01:03:07;2.20;99.90
8778;DHT22;4425;50.872;4.712;2022-12-11T01:05:35;2.20;99.90
8778;DHT22;4425;50.872;4.712;2022-12-11T01:08:02;2.20;99.90
8778;DHT22;4425;50.872;4.712;2022-12-11T01:10:30;2.30;99.90
8778;DHT22;4425;50.872;4.712;2022-12-11T01:12:59;2.40;99.90
8778;DHT22;4425;50.872;4.712;2022-12-11T01:15:29;2.50;99.90
8778;DHT22;4425;50.872;4.712;2022-12-11T01:17:56;2.40;99.90
8778;DHT22;4425;50.872;4.712;2022-12-11T01:20:25;2.50;99.90
8778;DHT22;4425;50.872;4.712;2022-12-11T01:22:53;2.50;99.90
8778;DHT22;4425;50.872;4.712;2022-12-11T01:25:20;2.50;99.90
8778;DHT22;4425;50.872;4.712;2022-12-11T01:27:49;2.50;99.90
8778;DHT22;4425;50.872;4.712;2022-12-11T01:30:18;2.50;99.90
8778;DHT22;4425;50.872;4.712;2022-12-11T01:32:47;2.50;99.90
8778;DHT22;4425;50.872;4.712;2022-12-11T01:35:14;2.50;99.90
8778;DHT22;4425;50.872;4.712;2022-12-11T01:37:43;2.50;99.90
8778;DHT22;4425;50.872;4.712;2022-12-11T01:40:11;2.50;99.90
8778;DHT22;4425;50.872;4.712;2022-12-11T01:42:39;2.40;99.90
8778;DHT22;4425;50.872;4.712;2022-12-11T01:45:26;2.40;99.90
8778;DHT22;4425;50.872;4.712;2022-12-11T01:48:03;2.40;99.90
8778;DHT22;4425;50.872;4.712;2022-12-11T01:50:34;2.30;99.90
8778;DHT22;4425;50.872;4.712;2022-12-11T01:53:03;2.30;99.90
8778;DHT22;4425;50.872;4.712;2022-12-11T01:55:33;2.30;99.90
8778;DHT22;4425;50.872;4.712;2022-12-11T01:58:01;2.30;99.90
8778;DHT22;4425;50.872;4.712;2022-12-11T02:00:28;2.30;99.90
8778;DHT22;4425;50.872;4.712;2022-12-11T02:02:56;2.20;99.90
8778;DHT22;4425;50.872;4.712;2022-12-11T02:05:23;2.30;99.90
8778;DHT22;4425;50.872;4.712;2022-12-11T02:07:54;2.30;99.90
8778;DHT22;4425;50.872;4.712;2022-12-11T02:10:25;2.30;99.90
8778;DHT22;4425;50.872;4.712;2022-12-11T02:12:58;2.30;99.90
8778;DHT22;4425;50.872;4.712;2022-12-11T02:15:30;2.30;99.90
8778;DHT22;4425;50.872;4.712;2022-12-11T02:18:09;2.30;99.90
8778;DHT22;4425;50.872;4.712;2022-12-11T02:20:42;2.20;99.90
8778;DHT22;4425;50.872;4.712;2022-12-11T02:23:38;2.20;99.90
8778;DHT22;4425;50.872;4.712;2022-12-11T02:26:20;2.30;99.90
8778;DHT22;4425;50.872;4.712;2022-12-11T02:28:54;2.30;99.90
8778;DHT22;4425;50.872;4.712;2022-12-11T02:31:25;2.20;99.90
8778;DHT22;4425;50.872;4.712;2022-12-11T02:33:59;2.20;99.90
8778;DHT22;4425;50.872;4.712;2022-12-11T02:36:29;2.20;99.90
8778;DHT22;4425;50.872;4.712;2022-12-11T02:38:58;2.20;99.90
8778;DHT22;4425;50.872;4.712;2022-12-11T02:41:28;2.20;99.90
8778;DHT22;4425;50.872;4.712;2022-12-11T02:43:58;2.20;99.90
8778;DHT22;4425;50.872;4.712;2022-12-11T02:46:28;2.20;99.90
8778;DHT22;4425;50.872;4.712;2022-12-11T02:48:57;2.30;99.90
8778;DHT22;4425;50.872;4.712;2022-12-11T02:51:29;2.30;99.90
8778;DHT22;4425;50.872;4.712;2022-12-11T02:53:58;2.30;99.90
8778;DHT22;4425;50.872;4.712;2022-12-11T02:56:31;2.30;99.90
8778;DHT22;4425;50.872;4.712;2022-12-11T02:59:05;2.30;99.90
8778;DHT22;4425;50.872;4.712;2022-12-11T03:01:34;2.30;99.90
8778;DHT22;4425;50.872;4.712;2022-12-11T03:04:01;2.30;99.90
8778;DHT22;4425;50.872;4.712;2022-12-11T03:06:31;2.20;99.90
8778;DHT22;4425;50.872;4.712;2022-12-11T03:09:03;2.20;99.90
8778;DHT22;4425;50.872;4.712;2022-12-11T03:11:30;2.20;99.90
8778;DHT22;4425;50.872;4.712;2022-12-11T03:13:57;2.20;99.90
8778;DHT22;4425;50.872;4.712;2022-12-11T03:16:34;2.20;99.90
8778;DHT22;4425;50.872;4.712;2022-12-11T03:19:09;2.20;99.90
8778;DHT22;4425;50.872;4.712;2022-12-11T03:21:41;2.20;99.90
8778;DHT22;4425;50.872;4.712;2022-12-11T03:24:14;2.20;99.90
8778;DHT22;4425;50.872;4.712;2022-12-11T03:26:46;2.20;99.90
8778;DHT22;4425;50.872;4.712;2022-12-11T03:29:20;2.20;99.90
8778;DHT22;4425;50.872;4.712;2022-12-11T03:31:52;2.20;99.90
8778;DHT22;4425;50.872;4.712;2022-12-11T03:34:25;2.20;99.90
8778;DHT22;4425;50.872;4.712;2022-12-11T03:36:55;2.20;99.90
8778;DHT22;4425;50.872;4.712;2022-12-11T03:39:25;2.20;99.90
8778;DHT22;4425;50.872;4.712;2022-12-11T03:41:54;2.20;99.90
8778;DHT22;4425;50.872;4.712;2022-12-11T03:44:22;2.20;99.90
8778;DHT22;4425;50.872;4.712;2022-12-11T03:46:54;2.20;99.90
8778;DHT22;4425;50.872;4.712;2022-12-11T03:49:25;2.20;99.90
8778;DHT22;4425;50.872;4.712;2022-12-11T03:51:55;2.20;99.90
8778;DHT22;4425;50.872;4.712;2022-12-11T03:54:22;2.20;99.90
8778;DHT22;4425;50.872;4.712;2022-12-11T03:56:53;2.20;99.90
8778;DHT22;4425;50.872;4.712;2022-12-11T03:59:21;2.20;99.90
8778;DHT22;4425;50.872;4.712;2022-12-11T04:01:48;2.30;99.90
8778;DHT22;4425;50.872;4.712;2022-12-11T04:04:16;2.20;99.90
8778;DHT22;4425;50.872;4.712;2022-12-11T04:06:44;2.20;99.90
8778;DHT22;4425;50.872;4.712;2022-12-11T04:09:11;2.20;99.90
8778;DHT22;4425;50.872;4.712;2022-12-11T04:11:38;2.20;99.90
8778;DHT22;4425;50.872;4.712;2022-12-11T04:14:10;2.20;99.90
8778;DHT22;4425;50.872;4.712;2022-12-11T04:16:56;2.20;99.90
8778;DHT22;4425;50.872;4.712;2022-12-11T04:19:29;2.20;99.90
8778;DHT22;4425;50.872;4.712;2022-12-11T04:22:28;2.20;99.90
8778;DHT22;4425;50.872;4.712;2022-12-11T04:25:20;2.10;99.90
8778;DHT22;4425;50.872;4.712;2022-12-11T04:27:47;2.10;99.90
8778;DHT22;4425;50.872;4.712;2022-12-11T04:30:16;2.10;99.90
8778;DHT22;4425;50.872;4.712;2022-12-11T04:32:44;2.10;99.90
8778;DHT22;4425;50.872;4.712;2022-12-11T04:35:18;2.10;99.90
8778;DHT22;4425;50.872;4.712;2022-12-11T04:37:45;2.10;99.90
8778;DHT22;4425;50.872;4.712;2022-12-11T04:40:15;2.10;99.90
8778;DHT22;4425;50.872;4.712;2022-12-11T04:42:43;2.10;99.90
8778;DHT22;4425;50.872;4.712;2022-12-11T04:45:10;2.00;99.90
8778;DHT22;4425;50.872;4.712;2022-12-11T04:47:39;2.00;99.90
8778;DHT22;4425;50.872;4.712;2022-12-11T04:50:10;2.00;99.90
8778;DHT22;4425;50.872;4.712;2022-12-11T04:52:39;2.00;99.90
8778;DHT22;4425;50.872;4.712;2022-12-11T04:55:07;2.00;99.90
8778;DHT22;4425;50.872;4.712;2022-12-11T04:57:35;2.00;99.90
8778;DHT22;4425;50.872;4.712;2022-12-11T05:00:02;2.00;99.90
8778;DHT22;4425;50.872;4.712;2022-12-11T05:02:29;2.00;99.90
8778;DHT22;4425;50.872;4.712;2022-12-11T05:04:56;2.00;99.90
8778;DHT22;4425;50.872;4.712;2022-12-11T05:07:23;2.00;99.90
8778;DHT22;4425;50.872;4.712;2022-12-11T05:09:52;2.00;99.90
8778;DHT22;4425;50.872;4.712;2022-12-11T05:12:19;2.00;99.90
8778;DHT22;4425;50.872;4.712;2022-12-11T05:14:49;2.00;99.90
8778;DHT22;4425;50.872;4.712;2022-12-11T05:17:16;2.00;99.90
8778;DHT22;4425;50.872;4.712;2022-12-11T05:19:43;2.00;99.90
8778;DHT22;4425;50.872;4.712;2022-12-11T05:22:12;2.00;99.90
8778;DHT22;4425;50.872;4.712;2022-12-11T05:24:39;2.00;99.90
8778;DHT22;4425;50.872;4.712;2022-12-11T05:27:07;2.00;99.90
8778;DHT22;4425;50.872;4.712;2022-12-11T05:29:35;2.00;99.90
8778;DHT22;4425;50.872;4.712;2022-12-11T05:32:02;2.00;99.90
8778;DHT22;4425;50.872;4.712;2022-12-11T05:34:29;2.00;99.90
8778;DHT22;4425;50.872;4.712;2022-12-11T05:36:57;2.00;99.90
8778;DHT22;4425;50.872;4.712;2022-12-11T05:39:24;2.00;99.90
8778;DHT22;4425;50.872;4.712;2022-12-11T05:41:51;2.00;99.90
8778;DHT22;4425;50.872;4.712;2022-12-11T05:44:20;2.00;99.90
8778;DHT22;4425;50.872;4.712;2022-12-11T05:46:47;2.00;99.90
8778;DHT22;4425;50.872;4.712;2022-12-11T05:49:14;2.00;99.90
8778;DHT22;4425;50.872;4.712;2022-12-11T05:51:41;2.00;99.90
8778;DHT22;4425;50.872;4.712;2022-12-11T05:54:08;2.00;99.90
8778;DHT22;4425;50.872;4.712;2022-12-11T05:56:37;2.10;99.90
8778;DHT22;4425;50.872;4.712;2022-12-11T05:59:05;2.00;99.90
8778;DHT22;4425;50.872;4.712;2022-12-11T06:01:37;2.00;99.90
8778;DHT22;4425;50.872;4.712;2022-12-11T06:04:05;2.10;99.90
8778;DHT22;4425;50.872;4.712;2022-12-11T06:06:33;2.00;99.90
8778;DHT22;4425;50.872;4.712;2022-12-11T06:09:00;2.10;99.90
8778;DHT22;4425;50.872;4.712;2022-12-11T06:11:29;2.00;99.90
8778;DHT22;4425;50.872;4.712;2022-12-11T06:13:58;2.00;99.90
8778;DHT22;4425;50.872;4.712;2022-12-11T06:16:26;2.00;99.90
8778;DHT22;4425;50.872;4.712;2022-12-11T06:18:54;2.00;99.90
8778;DHT22;4425;50.872;4.712;2022-12-11T06:21:24;2.10;99.90
8778;DHT22;4425;50.872;4.712;2022-12-11T06:23:52;2.10;99.90
8778;DHT22;4425;50.872;4.712;2022-12-11T06:26:20;2.10;99.90
8778;DHT22;4425;50.872;4.712;2022-12-11T06:28:47;2.10;99.90
8778;DHT22;4425;50.872;4.712;2022-12-11T06:31:15;2.00;99.90
8778;DHT22;4425;50.872;4.712;2022-12-11T06:33:42;2.00;99.90
8778;DHT22;4425;50.872;4.712;2022-12-11T06:36:13;2.10;99.90
8778;DHT22;4425;50.872;4.712;2022-12-11T06:38:41;2.00;99.90
8778;DHT22;4425;50.872;4.712;2022-12-11T06:41:08;2.00;99.90
8778;DHT22;4425;50.872;4.712;2022-12-11T06:43:37;2.00;99.90
8778;DHT22;4425;50.872;4.712;2022-12-11T06:46:05;2.00;99.90
8778;DHT22;4425;50.872;4.712;2022-12-11T06:48:32;2.00;99.90
8778;DHT22;4425;50.872;4.712;2022-12-11T06:51:04;2.00;99.90
8778;DHT22;4425;50.872;4.712;2022-12-11T06:53:32;2.00;99.90
8778;DHT22;4425;50.872;4.712;2022-12-11T06:56:01;2.00;99.90
8778;DHT22;4425;50.872;4.712;2022-12-11T06:58:28;2.00;99.90
8778;DHT22;4425;50.872;4.712;2022-12-11T07:00:55;2.00;99.90
8778;DHT22;4425;50.872;4.712;2022-12-11T07:03:22;2.00;99.90
8778;DHT22;4425;50.872;4.712;2022-12-11T07:05:49;2.00;99.90
8778;DHT22;4425;50.872;4.712;2022-12-11T07:08:16;2.00;99.90
8778;DHT22;4425;50.872;4.712;2022-12-11T07:10:44;2.00;99.90
8778;DHT22;4425;50.872;4.712;2022-12-11T07:13:11;2.00;99.90
8778;DHT22;4425;50.872;4.712;2022-12-11T07:15:38;2.00;99.90
8778;DHT22;4425;50.872;4.712;2022-12-11T07:18:06;2.00;99.90
8778;DHT22;4425;50.872;4.712;2022-12-11T07:20:33;2.00;99.90
8778;DHT22;4425;50.872;4.712;2022-12-11T07:23:00;2.00;99.90
8778;DHT22;4425;50.872;4.712;2022-12-11T07:25:27;2.00;99.90
8778;DHT22;4425;50.872;4.712;2022-12-11T07:27:55;2.00;99.90
8778;DHT22;4425;50.872;4.712;2022-12-11T07:30:23;1.90;99.90
8778;DHT22;4425;50.872;4.712;2022-12-11T07:32:50;2.00;99.90
8778;DHT22;4425;50.872;4.712;2022-12-11T07:35:18;1.90;99.90
8778;DHT22;4425;50.872;4.712;2022-12-11T07:37:45;1.90;99.90
8778;DHT22;4425;50.872;4.712;2022-12-11T07:40:12;1.90;99.90
8778;DHT22;4425;50.872;4.712;2022-12-11T07:42:39;1.90;99.90
8778;DHT22;4425;50.872;4.712;2022-12-11T07:45:09;1.90;99.90
8778;DHT22;4425;50.872;4.712;2022-12-11T07:47:36;1.90;99.90
8778;DHT22;4425;50.872;4.712;2022-12-11T07:50:04;1.90;99.90
8778;DHT22;4425;50.872;4.712;2022-12-11T07:52:32;1.90;99.90
8778;DHT22;4425;50.872;4.712;2022-12-11T07:54:59;1.90;99.90
8778;DHT22;4425;50.872;4.712;2022-12-11T07:57:26;1.90;99.90
8778;DHT22;4425;50.872;4.712;2022-12-11T07:59:55;1.90;99.90
8778;DHT22;4425;50.872;4.712;2022-12-11T08:02:23;1.90;99.90
8778;DHT22;4425;50.872;4.712;2022-12-11T08:04:50;1.90;99.90
8778;DHT22;4425;50.872;4.712;2022-12-11T08:07:17;1.80;99.90
8778;DHT22;4425;50.872;4.712;2022-12-11T08:09:44;1.80;99.90
8778;DHT22;4425;50.872;4.712;2022-12-11T08:12:12;1.80;99.90
8778;DHT22;4425;50.872;4.712;2022-12-11T08:14:38;1.90;99.90
8778;DHT22;4425;50.872;4.712;2022-12-11T08:17:05;1.90;99.90
8778;DHT22;4425;50.872;4.712;2022-12-11T08:19:34;1.90;99.90
8778;DHT22;4425;50.872;4.712;2022-12-11T08:22:01;1.90;99.90
8778;DHT22;4425;50.872;4.712;2022-12-11T08:24:28;1.90;99.90
8778;DHT22;4425;50.872;4.712;2022-12-11T08:26:55;1.90;99.90
8778;DHT22;4425;50.872;4.712;2022-12-11T08:29:22;1.90;99.90
8778;DHT22;4425;50.872;4.712;2022-12-11T08:31:50;2.00;99.90
8778;DHT22;4425;50.872;4.712;2022-12-11T08:34:17;1.90;99.90
8778;DHT22;4425;50.872;4.712;2022-12-11T08:36:46;1.90;99.90
8778;DHT22;4425;50.872;4.712;2022-12-11T08:39:13;1.90;99.90
8778;DHT22;4425;50.872;4.712;2022-12-11T08:41:40;1.90;99.90
8778;DHT22;4425;50.872;4.712;2022-12-11T08:44:10;1.90;99.90
8778;DHT22;4425;50.872;4.712;2022-12-11T08:46:37;1.90;99.90
8778;DHT22;4425;50.872;4.712;2022-12-11T08:49:04;1.90;99.90
8778;DHT22;4425;50.872;4.712;2022-12-11T08:51:31;1.90;99.90
8778;DHT22;4425;50.872;4.712;2022-12-11T08:54:00;1.80;99.90
8778;DHT22;4425;50.872;4.712;2022-12-11T08:56:28;1.80;99.90
8778;DHT22;4425;50.872;4.712;2022-12-11T08:58:57;1.90;99.90
8778;DHT22;4425;50.872;4.712;2022-12-11T09:01:27;1.90;99.90
8778;DHT22;4425;50.872;4.712;2022-12-11T09:03:55;1.80;99.90
8778;DHT22;4425;50.872;4.712;2022-12-11T09:06:24;1.90;99.90
8778;DHT22;4425;50.872;4.712;2022-12-11T09:08:52;1.90;99.90
8778;DHT22;4425;50.872;4.712;2022-12-11T09:11:23;1.90;99.90
8778;DHT22;4425;50.872;4.712;2022-12-11T09:13:52;1.90;99.90
8778;DHT22;4425;50.872;4.712;2022-12-11T09:16:22;1.90;99.90
8778;DHT22;4425;50.872;4.712;2022-12-11T09:18:51;1.90;99.90
8778;DHT22;4425;50.872;4.712;2022-12-11T09:21:20;1.90;99.90
8778;DHT22;4425;50.872;4.712;2022-12-11T09:23:47;1.90;99.90
8778;DHT22;4425;50.872;4.712;2022-12-11T09:26:16;1.90;99.90
8778;DHT22;4425;50.872;4.712;2022-12-11T09:28:45;1.80;99.90
8778;DHT22;4425;50.872;4.712;2022-12-11T09:31:14;1.80;99.90
8778;DHT22;4425;50.872;4.712;2022-12-11T09:33:42;1.80;99.90
8778;DHT22;4425;50.872;4.712;2022-12-11T09:36:09;1.80;99.90
8778;DHT22;4425;50.872;4.712;2022-12-11T09:38:37;1.90;99.90
8778;DHT22;4425;50.872;4.712;2022-12-11T09:41:36;1.80;99.90
8778;DHT22;4425;50.872;4.712;2022-12-11T09:44:20;1.90;99.90
8778;DHT22;4425;50.872;4.712;2022-12-11T09:46:48;1.90;99.90
8778;DHT22;4425;50.872;4.712;2022-12-11T09:49:25;1.80;99.90
8778;DHT22;4425;50.872;4.712;2022-12-11T09:51:58;1.80;99.90
8778;DHT22;4425;50.872;4.712;2022-12-11T09:54:27;1.80;99.90
8778;DHT22;4425;50.872;4.712;2022-12-11T09:56:58;1.80;99.90
8778;DHT22;4425;50.872;4.712;2022-12-11T09:59:32;1.80;99.90
8778;DHT22;4425;50.872;4.712;2022-12-11T10:02:14;1.80;99.90
8778;DHT22;4425;50.872;4.712;2022-12-11T10:04:50;1.80;99.90
8778;DHT22;4425;50.872;4.712;2022-12-11T10:07:24;1.80;99.90
8778;DHT22;4425;50.872;4.712;2022-12-11T10:10:00;1.80;99.90
8778;DHT22;4425;50.872;4.712;2022-12-11T10:12:35;1.90;99.90
8778;DHT22;4425;50.872;4.712;2022-12-11T10:15:15;2.00;99.90
8778;DHT22;4425;50.872;4.712;2022-12-11T10:17:46;2.10;99.90
8778;DHT22;4425;50.872;4.712;2022-12-11T10:20:21;2.10;99.90
8778;DHT22;4425;50.872;4.712;2022-12-11T10:22:49;2.10;99.90
8778;DHT22;4425;50.872;4.712;2022-12-11T10:25:20;2.10;99.90
8778;DHT22;4425;50.872;4.712;2022-12-11T10:27:47;2.20;99.90
8778;DHT22;4425;50.872;4.712;2022-12-11T10:30:22;2.20;99.90
8778;DHT22;4425;50.872;4.712;2022-12-11T10:33:02;2.20;99.90
8778;DHT22;4425;50.872;4.712;2022-12-11T10:35:35;2.30;99.90
8778;DHT22;4425;50.872;4.712;2022-12-11T10:38:15;2.30;99.90
8778;DHT22;4425;50.872;4.712;2022-12-11T10:40:45;2.30;99.90
8778;DHT22;4425;50.872;4.712;2022-12-11T10:43:13;2.40;99.90
8778;DHT22;4425;50.872;4.712;2022-12-11T10:45:50;2.50;99.90
8778;DHT22;4425;50.872;4.712;2022-12-11T10:48:22;2.40;99.90
8778;DHT22;4425;50.872;4.712;2022-12-11T10:50:59;2.40;99.90
8778;DHT22;4425;50.872;4.712;2022-12-11T10:53:27;2.40;99.90
8778;DHT22;4425;50.872;4.712;2022-12-11T10:55:55;2.40;99.90
8778;DHT22;4425;50.872;4.712;2022-12-11T10:58:26;2.40;99.90
8778;DHT22;4425;50.872;4.712;2022-12-11T11:01:07;2.50;99.90
8778;DHT22;4425;50.872;4.712;2022-12-11T11:03:42;2.60;99.90
8778;DHT22;4425;50.872;4.712;2022-12-11T11:06:20;2.50;99.90
8778;DHT22;4425;50.872;4.712;2022-12-11T11:08:48;2.60;99.90
8778;DHT22;4425;50.872;4.712;2022-12-11T11:11:25;2.50;99.90
8778;DHT22;4425;50.872;4.712;2022-12-11T11:14:13;2.60;99.90
8778;DHT22;4425;50.872;4.712;2022-12-11T11:16:44;2.70;99.90
8778;DHT22;4425;50.872;4.712;2022-12-11T11:19:21;2.80;99.90
8778;DHT22;4425;50.872;4.712;2022-12-11T11:21:51;2.90;99.90
8778;DHT22;4425;50.872;4.712;2022-12-11T11:24:28;2.90;99.90
8778;DHT22;4425;50.872;4.712;2022-12-11T11:26:56;2.80;99.90
8778;DHT22;4425;50.872;4.712;2022-12-11T11:29:28;2.80;99.90
8778;DHT22;4425;50.872;4.712;2022-12-11T11:32:13;2.90;99.90
8778;DHT22;4425;50.872;4.712;2022-12-11T11:34:41;2.80;99.90
8778;DHT22;4425;50.872;4.712;2022-12-11T11:37:22;2.90;99.90
8778;DHT22;4425;50.872;4.712;2022-12-11T11:39:53;3.00;99.90
8778;DHT22;4425;50.872;4.712;2022-12-11T11:42:28;3.00;99.90
8778;DHT22;4425;50.872;4.712;2022-12-11T11:45:03;3.10;99.90
8778;DHT22;4425;50.872;4.712;2022-12-11T11:47:40;3.10;99.90
8778;DHT22;4425;50.872;4.712;2022-12-11T11:50:15;3.00;99.90
8778;DHT22;4425;50.872;4.712;2022-12-11T11:52:50;2.90;99.90
8778;DHT22;4425;50.872;4.712;2022-12-11T11:55:25;2.70;99.90
8778;DHT22;4425;50.872;4.712;2022-12-11T11:58:10;2.70;99.90
8778;DHT22;4425;50.872;4.712;2022-12-11T12:00:38;2.70;99.90
8778;DHT22;4425;50.872;4.712;2022-12-11T12:03:20;2.80;99.90
8778;DHT22;4425;50.872;4.712;2022-12-11T12:05:53;2.80;99.90
8778;DHT22;4425;50.872;4.712;2022-12-11T12:08:33;2.80;99.90
8778;DHT22;4425;50.872;4.712;2022-12-11T12:11:08;2.80;99.90
8778;DHT22;4425;50.872;4.712;2022-12-11T12:13:49;2.80;99.90
8778;DHT22;4425;50.872;4.712;2022-12-11T12:16:26;2.80;99.90
8778;DHT22;4425;50.872;4.712;2022-12-11T12:19:13;2.80;99.90
8778;DHT22;4425;50.872;4.712;2022-12-11T12:21:46;2.90;99.90
8778;DHT22;4425;50.872;4.712;2022-12-11T12:24:26;2.90;99.90
8778;DHT22;4425;50.872;4.712;2022-12-11T12:27:01;2.80;99.90
8778;DHT22;4425;50.872;4.712;2022-12-11T12:29:53;3.00;99.90
8778;DHT22;4425;50.872;4.712;2022-12-11T12:32:45;3.00;99.90
8778;DHT22;4425;50.872;4.712;2022-12-11T12:35:29;3.00;99.90
8778;DHT22;4425;50.872;4.712;2022-12-11T12:38:09;3.00;99.90
8778;DHT22;4425;50.872;4.712;2022-12-11T12:40:47;3.00;99.90
8778;DHT22;4425;50.872;4.712;2022-12-11T12:46:37;2.90;99.90
8778;DHT22;4425;50.872;4.712;2022-12-11T12:49:11;2.90;99.90
8778;DHT22;4425;50.872;4.712;2022-12-11T12:51:42;2.90;99.90
8778;DHT22;4425;50.872;4.712;2022-12-11T12:54:14;2.90;99.90
8778;DHT22;4425;50.872;4.712;2022-12-11T12:56:43;3.00;99.90
8778;DHT22;4425;50.872;4.712;2022-12-11T12:59:19;3.00;99.90
8778;DHT22;4425;50.872;4.712;2022-12-11T13:01:49;3.10;99.90
8778;DHT22;4425;50.872;4.712;2022-12-11T13:04:33;3.10;99.90
8778;DHT22;4425;50.872;4.712;2022-12-11T13:07:16;3.10;99.90
8778;DHT22;4425;50.872;4.712;2022-12-11T13:10:02;3.20;99.90
8778;DHT22;4425;50.872;4.712;2022-12-11T13:12:42;3.30;99.90
8778;DHT22;4425;50.872;4.712;2022-12-11T13:15:30;3.30;99.90
8778;DHT22;4425;50.872;4.712;2022-12-11T13:18:00;3.30;99.90
8778;DHT22;4425;50.872;4.712;2022-12-11T13:20:30;3.40;99.90
8778;DHT22;4425;50.872;4.712;2022-12-11T13:23:26;3.50;99.90
8778;DHT22;4425;50.872;4.712;2022-12-11T13:25:55;3.40;99.90
8778;DHT22;4425;50.872;4.712;2022-12-11T13:28:30;3.40;99.90
8778;DHT22;4425;50.872;4.712;2022-12-11T13:31:06;3.20;99.90
8778;DHT22;4425;50.872;4.712;2022-12-11T13:33:40;3.10;99.90
8778;DHT22;4425;50.872;4.712;2022-12-11T13:36:30;3.00;99.90
8778;DHT22;4425;50.872;4.712;2022-12-11T13:39:14;3.00;99.90
8778;DHT22;4425;50.872;4.712;2022-12-11T13:41:45;2.90;99.90
8778;DHT22;4425;50.872;4.712;2022-12-11T13:44:19;2.90;99.90
8778;DHT22;4425;50.872;4.712;2022-12-11T13:46:49;2.90;99.90
8778;DHT22;4425;50.872;4.712;2022-12-11T13:49:24;2.90;99.90
8778;DHT22;4425;50.872;4.712;2022-12-11T13:51:57;2.90;99.90
8778;DHT22;4425;50.872;4.712;2022-12-11T13:54:28;2.90;99.90
8778;DHT22;4425;50.872;4.712;2022-12-11T13:57:14;2.80;99.90
8778;DHT22;4425;50.872;4.712;2022-12-11T13:59:49;2.80;99.90
8778;DHT22;4425;50.872;4.712;2022-12-11T14:02:21;2.80;99.90
8778;DHT22;4425;50.872;4.712;2022-12-11T14:04:52;2.80;99.90
8778;DHT22;4425;50.872;4.712;2022-12-11T14:07:25;2.80;99.90
8778;DHT22;4425;50.872;4.712;2022-12-11T14:10:13;2.80;99.90
8778;DHT22;4425;50.872;4.712;2022-12-11T14:12:48;2.80;99.90
8778;DHT22;4425;50.872;4.712;2022-12-11T14:15:19;2.80;99.90
8778;DHT22;4425;50.872;4.712;2022-12-11T14:17:47;2.80;99.90
8778;DHT22;4425;50.872;4.712;2022-12-11T14:20:18;2.70;99.90
8778;DHT22;4425;50.872;4.712;2022-12-11T14:22:45;2.70;99.90
8778;DHT22;4425;50.872;4.712;2022-12-11T14:25:20;2.70;99.90
8778;DHT22;4425;50.872;4.712;2022-12-11T14:27:52;2.60;99.90
8778;DHT22;4425;50.872;4.712;2022-12-11T14:30:26;2.60;99.90
8778;DHT22;4425;50.872;4.712;2022-12-11T14:32:58;2.60;99.90
8778;DHT22;4425;50.872;4.712;2022-12-11T14:35:43;2.60;99.90
8778;DHT22;4425;50.872;4.712;2022-12-11T14:38:19;2.60;99.90
8778;DHT22;4425;50.872;4.712;2022-12-11T14:40:53;2.70;99.90
8778;DHT22;4425;50.872;4.712;2022-12-11T14:43:25;2.70;99.90
8778;DHT22;4425;50.872;4.712;2022-12-11T14:46:02;2.70;99.90
8778;DHT22;4425;50.872;4.712;2022-12-11T14:48:37;2.60;99.90
8778;DHT22;4425;50.872;4.712;2022-12-11T14:51:09;2.60;99.90
8778;DHT22;4425;50.872;4.712;2022-12-11T14:53:43;2.60;99.90
8778;DHT22;4425;50.872;4.712;2022-12-11T14:56:20;2.70;99.90
8778;DHT22;4425;50.872;4.712;2022-12-11T14:58:52;2.70;99.90
8778;DHT22;4425;50.872;4.712;2022-12-11T15:01:25;2.70;99.90
8778;DHT22;4425;50.872;4.712;2022-12-11T15:04:14;2.70;99.90
8778;DHT22;4425;50.872;4.712;2022-12-11T15:06:47;2.70;99.90
8778;DHT22;4425;50.872;4.712;2022-12-11T15:09:18;2.80;99.90
8778;DHT22;4425;50.872;4.712;2022-12-11T15:11:48;2.70;99.90
8778;DHT22;4425;50.872;4.712;2022-12-11T15:14:27;2.80;99.90
8778;DHT22;4425;50.872;4.712;2022-12-11T15:16:56;2.90;99.90
8778;DHT22;4425;50.872;4.712;2022-12-11T15:19:26;2.80;99.90
8778;DHT22;4425;50.872;4.712;2022-12-11T15:22:00;2.80;99.90
8778;DHT22;4425;50.872;4.712;2022-12-11T15:24:33;2.90;99.90
8778;DHT22;4425;50.872;4.712;2022-12-11T15:27:05;2.80;99.90
8778;DHT22;4425;50.872;4.712;2022-12-11T15:29:36;2.80;99.90
8778;DHT22;4425;50.872;4.712;2022-12-11T15:32:16;2.80;99.90
8778;DHT22;4425;50.872;4.712;2022-12-11T15:34:45;2.80;99.90
8778;DHT22;4425;50.872;4.712;2022-12-11T15:37:22;2.80;99.90
8778;DHT22;4425;50.872;4.712;2022-12-11T15:39:50;2.80;99.90
8778;DHT22;4425;50.872;4.712;2022-12-11T15:42:25;2.80;99.90
8778;DHT22;4425;50.872;4.712;2022-12-11T15:44:53;2.80;99.90
8778;DHT22;4425;50.872;4.712;2022-12-11T15:47:23;2.80;99.90
8778;DHT22;4425;50.872;4.712;2022-12-11T15:49:53;2.80;99.90
8778;DHT22;4425;50.872;4.712;2022-12-11T15:52:21;2.80;99.90
8778;DHT22;4425;50.872;4.712;2022-12-11T15:54:48;2.80;99.90
8778;DHT22;4425;50.872;4.712;2022-12-11T15:57:17;2.70;99.90
8778;DHT22;4425;50.872;4.712;2022-12-11T16:00:02;2.70;99.90
8778;DHT22;4425;50.872;4.712;2022-12-11T16:02:32;2.70;99.90
8778;DHT22;4425;50.872;4.712;2022-12-11T16:05:00;2.70;99.90
8778;DHT22;4425;50.872;4.712;2022-12-11T16:07:27;2.80;99.90
8778;DHT22;4425;50.872;4.712;2022-12-11T16:09:54;2.80;99.90
8778;DHT22;4425;50.872;4.712;2022-12-11T16:12:21;2.80;99.90
8778;DHT22;4425;50.872;4.712;2022-12-11T16:14:48;2.80;99.90
8778;DHT22;4425;50.872;4.712;2022-12-11T16:17:16;2.80;99.90
8778;DHT22;4425;50.872;4.712;2022-12-11T16:19:43;2.80;99.90
8778;DHT22;4425;50.872;4.712;2022-12-11T16:22:14;2.90;99.90
8778;DHT22;4425;50.872;4.712;2022-12-11T16:24:41;2.90;99.90
8778;DHT22;4425;50.872;4.712;2022-12-11T16:27:08;2.80;99.90
8778;DHT22;4425;50.872;4.712;2022-12-11T16:29:36;2.80;99.90
8778;DHT22;4425;50.872;4.712;2022-12-11T16:32:04;2.80;99.90
8778;DHT22;4425;50.872;4.712;2022-12-11T16:34:34;2.90;99.90
8778;DHT22;4425;50.872;4.712;2022-12-11T16:37:02;3.00;99.90
8778;DHT22;4425;50.872;4.712;2022-12-11T16:39:29;2.90;99.90
8778;DHT22;4425;50.872;4.712;2022-12-11T16:41:56;2.90;99.90
8778;DHT22;4425;50.872;4.712;2022-12-11T16:44:24;2.90;99.90
8778;DHT22;4425;50.872;4.712;2022-12-11T16:46:52;2.80;99.90